Aumsville, OR

9:41 PM PDT on September 02, 2014 (GMT -0700)
'Aumsville Ponds' Park | Change Station
CLOSE
Current Station
Personal Weather Station
Location: Aumsville, OR
Elevation: 377 ft
Nearby Weather Stations

Elev 377 ft 44.83 °N, 122.86 °W | Updated 0 second ago

Clear
Clear
60.4 °F
Feels Like 60.4 °F
N
0.0
Wind Variable Wind from NE
Gusts 0.0 mph

Today
High -- | Low -- °F
--% Chance of Precip.
Yesterday
High -- | Low -- °F
Precip. -- in
6:35 AM 7:46 PM
First Quarter, 58% visible
Pressure 29.97 in
Visibility 10.0 miles
Clouds Clear
Dew Point 55 °F
Humidity 82%
Rainfall 0.00 in
Snow Depth Not available.
UV 0 out of 12
Pollen 3.80 out of 12
Air Quality Not available.
Flu Activity Not available.
METAR KSLE 030356Z 00000KT 10SM CLR 17/12 A2997 RMK AO2 SLP148 T01670117

More Conditions Fewer Conditions

Pressure 29.97 in
Visibility 10.0 miles
Clouds Clear
Dew Point 55 °F
Humidity 82%
Rainfall 0.00 in
Snow Depth Not available.
UV 0 out of 12
Pollen 3.80 out of 12
Air Quality Not available.
Flu Activity Not available.
METAR KSLE 030356Z 00000KT 10SM CLR 17/12 A2997 RMK AO2 SLP148 T01670117

More Conditions Fewer Conditions

10-Day Weather Forecast

Almanac

Astronomy

Sep. 02, 2014 Rise Set
Actual Time 6:35 AM PDT 7:46 PM PDT
Civil Twilight 6:04 AM PDT 8:16 PM PDT
Nautical Twilight 5:28 AM PDT 8:52 PM PDT
Astronomical Twilight 4:50 AM PDT 9:30 PM PDT
Moon 2:42 PM PDT (9/2) No Moon Set
Length of Visible Light 14h 11m
Length of Day
13h 11m
Tomorrow will be 3m 1s shorter.
First Quarter, 58% of the Moon is Illuminated
Sep 3
First Quarter
Sep 8
Full
Sep 15
Last Quarter
Sep 24
New
Oct 1
First Quarter

Yesterday's Extremes

State Highs State Lows

Community

WunderPhotos

Upload Photos

1,749,875 photos uploaded!

Nearby

Snow Depth

Station Depth Elevation
Daly Lake 0 in 3600 ft
Peavine Ridge 0 in 3500 ft
Seine Creek 0 in 2000 ft
Santiam Junction 0 in 3750 ft
Hogg Pass 0 in 4760 ft

Earthquake Activity

City Distance Mag. Time & Date
No recent earthquake activity has been reported nearby.
Minimum magnitude displayed is 2.5.

Coastal Water Temperatures

Place Temperature
No Stations Reporting

Nearby Weather Stations